sensor_id;sensor_type;location;lat;lon;timestamp;temperature;humidity
3262;DHT22;1643;47.746;9.000;2022-08-04T00:01:07;24.00;98.90
3262;DHT22;1643;47.746;9.000;2022-08-04T00:03:42;23.90;99.00
3262;DHT22;1643;47.746;9.000;2022-08-04T00:06:16;23.90;99.10
3262;DHT22;1643;47.746;9.000;2022-08-04T00:08:55;23.80;99.20
3262;DHT22;1643;47.746;9.000;2022-08-04T00:11:25;23.80;99.30
3262;DHT22;1643;47.746;9.000;2022-08-04T00:14:17;23.70;99.30
3262;DHT22;1643;47.746;9.000;2022-08-04T00:16:46;23.80;99.40
3262;DHT22;1643;47.746;9.000;2022-08-04T00:19:40;23.70;99.50
3262;DHT22;1643;47.746;9.000;2022-08-04T00:22:09;23.70;99.70
3262;DHT22;1643;47.746;9.000;2022-08-04T00:24:35;23.60;99.80
3262;DHT22;1643;47.746;9.000;2022-08-04T00:27:02;23.60;99.90
3262;DHT22;1643;47.746;9.000;2022-08-04T00:29:28;23.50;99.90
3262;DHT22;1643;47.746;9.000;2022-08-04T00:31:55;23.50;99.90
3262;DHT22;1643;47.746;9.000;2022-08-04T00:34:23;23.40;99.90
3262;DHT22;1643;47.746;9.000;2022-08-04T00:36:49;23.40;99.90
3262;DHT22;1643;47.746;9.000;2022-08-04T00:39:15;23.40;99.90
3262;DHT22;1643;47.746;9.000;2022-08-04T00:53:30;23.30;99.50
3262;DHT22;1643;47.746;9.000;2022-08-04T01:04:28;23.10;99.90
3262;DHT22;1643;47.746;9.000;2022-08-04T01:10:29;23.00;99.90
3262;DHT22;1643;47.746;9.000;2022-08-04T01:16:05;22.90;99.90
3262;DHT22;1643;47.746;9.000;2022-08-04T01:19:10;22.80;99.90
3262;DHT22;1643;47.746;9.000;2022-08-04T01:30:28;22.80;99.90
3262;DHT22;1643;47.746;9.000;2022-08-04T01:33:04;22.80;99.90
3262;DHT22;1643;47.746;9.000;2022-08-04T01:40:56;22.80;99.90
3262;DHT22;1643;47.746;9.000;2022-08-04T01:43:23;22.70;99.90
3262;DHT22;1643;47.746;9.000;2022-08-04T01:45:57;22.70;99.90
3262;DHT22;1643;47.746;9.000;2022-08-04T01:48:25;22.60;99.90
3262;DHT22;1643;47.746;9.000;2022-08-04T01:50:52;22.50;99.90
3262;DHT22;1643;47.746;9.000;2022-08-04T01:53:20;22.40;99.90
3262;DHT22;1643;47.746;9.000;2022-08-04T01:55:47;22.50;99.90
3262;DHT22;1643;47.746;9.000;2022-08-04T01:58:18;22.60;99.90
3262;DHT22;1643;47.746;9.000;2022-08-04T02:00:57;22.60;99.90
3262;DHT22;1643;47.746;9.000;2022-08-04T02:03:24;22.60;99.90
3262;DHT22;1643;47.746;9.000;2022-08-04T02:05:58;22.50;99.90
3262;DHT22;1643;47.746;9.000;2022-08-04T02:08:50;22.50;99.90
3262;DHT22;1643;47.746;9.000;2022-08-04T02:11:21;22.50;99.90
3262;DHT22;1643;47.746;9.000;2022-08-04T02:14:44;22.50;99.90
3262;DHT22;1643;47.746;9.000;2022-08-04T02:20:34;22.50;99.90
3262;DHT22;1643;47.746;9.000;2022-08-04T02:23:08;22.50;99.90
3262;DHT22;1643;47.746;9.000;2022-08-04T02:25:40;22.40;99.90
3262;DHT22;1643;47.746;9.000;2022-08-04T02:28:27;22.40;99.90
3262;DHT22;1643;47.746;9.000;2022-08-04T02:33:36;22.40;99.90
3262;DHT22;1643;47.746;9.000;2022-08-04T02:36:04;22.40;99.90
3262;DHT22;1643;47.746;9.000;2022-08-04T02:39:12;22.40;99.90
3262;DHT22;1643;47.746;9.000;2022-08-04T02:41:21;22.30;99.90
3262;DHT22;1643;47.746;9.000;2022-08-04T02:43:48;22.30;99.90
3262;DHT22;1643;47.746;9.000;2022-08-04T02:46:22;22.20;99.90
3262;DHT22;1643;47.746;9.000;2022-08-04T02:48:50;22.20;99.90
3262;DHT22;1643;47.746;9.000;2022-08-04T02:51:25;22.20;99.90
3262;DHT22;1643;47.746;9.000;2022-08-04T02:53:54;22.20;99.90
3262;DHT22;1643;47.746;9.000;2022-08-04T02:56:21;22.10;99.90
3262;DHT22;1643;47.746;9.000;2022-08-04T02:59:13;22.10;99.90
3262;DHT22;1643;47.746;9.000;2022-08-04T03:01:40;22.20;99.90
3262;DHT22;1643;47.746;9.000;2022-08-04T03:22:05;22.00;99.90
3262;DHT22;1643;47.746;9.000;2022-08-04T03:38:02;21.90;99.90
3262;DHT22;1643;47.746;9.000;2022-08-04T04:14:57;21.70;99.90
3262;DHT22;1643;47.746;9.000;2022-08-04T04:23:20;21.70;99.90
3262;DHT22;1643;47.746;9.000;2022-08-04T04:41:07;21.60;99.90
3262;DHT22;1643;47.746;9.000;2022-08-04T04:46:31;21.50;99.90
3262;DHT22;1643;47.746;9.000;2022-08-04T04:49:16;21.60;99.90
3262;DHT22;1643;47.746;9.000;2022-08-04T04:59:30;21.70;99.90
3262;DHT22;1643;47.746;9.000;2022-08-04T05:13:30;21.60;99.90
3262;DHT22;1643;47.746;9.000;2022-08-04T05:16:04;21.60;99.90
3262;DHT22;1643;47.746;9.000;2022-08-04T05:18:36;21.60;99.90
3262;DHT22;1643;47.746;9.000;2022-08-04T05:23:53;21.70;99.90
3262;DHT22;1643;47.746;9.000;2022-08-04T05:26:25;21.80;99.90
3262;DHT22;1643;47.746;9.000;2022-08-04T05:28:56;21.80;99.90
3262;DHT22;1643;47.746;9.000;2022-08-04T05:31:29;21.80;99.90
3262;DHT22;1643;47.746;9.000;2022-08-04T05:34:06;21.90;99.90
3262;DHT22;1643;47.746;9.000;2022-08-04T05:36:45;22.00;99.90
3262;DHT22;1643;47.746;9.000;2022-08-04T05:39:23;22.00;99.90
3262;DHT22;1643;47.746;9.000;2022-08-04T05:41:49;22.10;99.90
3262;DHT22;1643;47.746;9.000;2022-08-04T05:44:16;22.10;99.90
3262;DHT22;1643;47.746;9.000;2022-08-04T05:46:46;22.10;99.90
3262;DHT22;1643;47.746;9.000;2022-08-04T05:49:12;22.10;99.90
3262;DHT22;1643;47.746;9.000;2022-08-04T05:51:39;22.10;99.90
3262;DHT22;1643;47.746;9.000;2022-08-04T05:54:06;22.30;99.90
3262;DHT22;1643;47.746;9.000;2022-08-04T05:56:34;22.30;99.90
3262;DHT22;1643;47.746;9.000;2022-08-04T05:59:02;22.40;99.90
3262;DHT22;1643;47.746;9.000;2022-08-04T06:01:29;22.50;99.90
3262;DHT22;1643;47.746;9.000;2022-08-04T06:03:56;22.50;99.90
3262;DHT22;1643;47.746;9.000;2022-08-04T06:06:24;22.60;99.90
3262;DHT22;1643;47.746;9.000;2022-08-04T06:08:50;22.70;99.90
3262;DHT22;1643;47.746;9.000;2022-08-04T06:11:17;22.80;99.90
3262;DHT22;1643;47.746;9.000;2022-08-04T06:13:50;22.80;99.90
3262;DHT22;1643;47.746;9.000;2022-08-04T06:16:18;22.90;99.90
3262;DHT22;1643;47.746;9.000;2022-08-04T06:18:48;23.00;99.90
3262;DHT22;1643;47.746;9.000;2022-08-04T06:21:19;23.10;99.90
3262;DHT22;1643;47.746;9.000;2022-08-04T06:23:48;23.10;99.90
3262;DHT22;1643;47.746;9.000;2022-08-04T06:26:14;23.20;99.90
3262;DHT22;1643;47.746;9.000;2022-08-04T06:28:53;23.30;99.90
3262;DHT22;1643;47.746;9.000;2022-08-04T06:31:21;23.30;99.90
3262;DHT22;1643;47.746;9.000;2022-08-04T06:34:09;23.30;99.90
3262;DHT22;1643;47.746;9.000;2022-08-04T06:36:36;23.40;99.90
3262;DHT22;1643;47.746;9.000;2022-08-04T06:39:04;23.40;99.90
3262;DHT22;1643;47.746;9.000;2022-08-04T06:41:30;23.40;99.90
3262;DHT22;1643;47.746;9.000;2022-08-04T06:44:04;23.40;99.90
3262;DHT22;1643;47.746;9.000;2022-08-04T06:46:31;23.50;99.90
3262;DHT22;1643;47.746;9.000;2022-08-04T06:48:57;23.60;99.90
3262;DHT22;1643;47.746;9.000;2022-08-04T06:51:24;23.60;99.90
3262;DHT22;1643;47.746;9.000;2022-08-04T06:53:50;23.70;99.90
3262;DHT22;1643;47.746;9.000;2022-08-04T06:56:17;23.70;99.90
3262;DHT22;1643;47.746;9.000;2022-08-04T06:58:47;23.80;99.90
3262;DHT22;1643;47.746;9.000;2022-08-04T07:01:15;23.80;99.90
3262;DHT22;1643;47.746;9.000;2022-08-04T07:03:42;23.90;99.90
3262;DHT22;1643;47.746;9.000;2022-08-04T07:06:08;24.00;99.90
3262;DHT22;1643;47.746;9.000;2022-08-04T07:08:34;24.10;99.90
3262;DHT22;1643;47.746;9.000;2022-08-04T07:11:01;24.20;99.90
3262;DHT22;1643;47.746;9.000;2022-08-04T07:13:27;24.20;99.90
3262;DHT22;1643;47.746;9.000;2022-08-04T07:15:55;24.30;99.90
3262;DHT22;1643;47.746;9.000;2022-08-04T07:18:22;24.30;99.90
3262;DHT22;1643;47.746;9.000;2022-08-04T07:20:48;24.30;99.90
3262;DHT22;1643;47.746;9.000;2022-08-04T07:23:15;24.30;99.90
3262;DHT22;1643;47.746;9.000;2022-08-04T07:25:54;24.40;99.90
3262;DHT22;1643;47.746;9.000;2022-08-04T07:28:22;24.50;99.90
3262;DHT22;1643;47.746;9.000;2022-08-04T07:30:48;24.50;99.90
3262;DHT22;1643;47.746;9.000;2022-08-04T07:33:17;24.60;99.90
3262;DHT22;1643;47.746;9.000;2022-08-04T07:35:45;24.60;99.90
3262;DHT22;1643;47.746;9.000;2022-08-04T07:38:12;24.60;99.90
3262;DHT22;1643;47.746;9.000;2022-08-04T07:40:38;24.60;99.90
3262;DHT22;1643;47.746;9.000;2022-08-04T07:43:04;24.60;99.90
3262;DHT22;1643;47.746;9.000;2022-08-04T07:45:31;24.60;99.90
3262;DHT22;1643;47.746;9.000;2022-08-04T07:47:56;24.70;99.90
3262;DHT22;1643;47.746;9.000;2022-08-04T07:50:23;24.80;99.90
3262;DHT22;1643;47.746;9.000;2022-08-04T07:52:54;24.80;99.90
3262;DHT22;1643;47.746;9.000;2022-08-04T07:55:21;24.90;99.90
3262;DHT22;1643;47.746;9.000;2022-08-04T07:57:47;25.00;99.90
3262;DHT22;1643;47.746;9.000;2022-08-04T08:00:13;25.00;99.90
3262;DHT22;1643;47.746;9.000;2022-08-04T08:02:41;25.10;99.90
3262;DHT22;1643;47.746;9.000;2022-08-04T08:05:09;25.20;99.90
3262;DHT22;1643;47.746;9.000;2022-08-04T08:07:37;25.20;99.90
3262;DHT22;1643;47.746;9.000;2022-08-04T08:10:03;25.20;99.90
3262;DHT22;1643;47.746;9.000;2022-08-04T08:12:30;25.20;99.90
3262;DHT22;1643;47.746;9.000;2022-08-04T08:14:56;25.60;99.90
3262;DHT22;1643;47.746;9.000;2022-08-04T08:17:22;25.60;99.90
3262;DHT22;1643;47.746;9.000;2022-08-04T08:19:48;25.50;99.90
3262;DHT22;1643;47.746;9.000;2022-08-04T08:22:14;25.60;99.90
3262;DHT22;1643;47.746;9.000;2022-08-04T08:24:39;25.60;99.90
3262;DHT22;1643;47.746;9.000;2022-08-04T08:27:05;25.70;99.90
3262;DHT22;1643;47.746;9.000;2022-08-04T08:29:34;25.70;99.90
3262;DHT22;1643;47.746;9.000;2022-08-04T08:32:03;25.80;99.90
3262;DHT22;1643;47.746;9.000;2022-08-04T08:34:31;25.80;99.90
3262;DHT22;1643;47.746;9.000;2022-08-04T08:37:29;25.80;99.90
3262;DHT22;1643;47.746;9.000;2022-08-04T08:45:44;26.10;99.90
3262;DHT22;1643;47.746;9.000;2022-08-04T08:48:46;26.20;99.90
3262;DHT22;1643;47.746;9.000;2022-08-04T09:02:54;26.50;99.90
3262;DHT22;1643;47.746;9.000;2022-08-04T09:05:55;26.60;99.90
3262;DHT22;1643;47.746;9.000;2022-08-04T09:11:19;26.60;99.90
3262;DHT22;1643;47.746;9.000;2022-08-04T09:14:01;26.60;99.90
3262;DHT22;1643;47.746;9.000;2022-08-04T09:16:48;26.70;99.90
3262;DHT22;1643;47.746;9.000;2022-08-04T09:19:26;26.80;99.90
3262;DHT22;1643;47.746;9.000;2022-08-04T09:38:00;27.10;99.50
3262;DHT22;1643;47.746;9.000;2022-08-04T09:40:44;27.10;99.20
3262;DHT22;1643;47.746;9.000;2022-08-04T09:43:24;27.20;99.30
3262;DHT22;1643;47.746;9.000;2022-08-04T09:46:01;27.30;99.10
3262;DHT22;1643;47.746;9.000;2022-08-04T09:48:55;27.30;98.90
3262;DHT22;1643;47.746;9.000;2022-08-04T09:54:32;27.40;98.40
3262;DHT22;1643;47.746;9.000;2022-08-04T09:57:31;27.60;98.30
3262;DHT22;1643;47.746;9.000;2022-08-04T10:02:31;27.70;98.10
3262;DHT22;1643;47.746;9.000;2022-08-04T10:04:58;27.70;97.90
3262;DHT22;1643;47.746;9.000;2022-08-04T10:07:41;27.80;97.90
3262;DHT22;1643;47.746;9.000;2022-08-04T10:15:48;27.90;97.40
3262;DHT22;1643;47.746;9.000;2022-08-04T10:27:21;28.20;97.50
3262;DHT22;1643;47.746;9.000;2022-08-04T10:29:51;28.20;97.30
3262;DHT22;1643;47.746;9.000;2022-08-04T10:32:44;28.30;97.30
3262;DHT22;1643;47.746;9.000;2022-08-04T10:35:23;28.30;97.20
3262;DHT22;1643;47.746;9.000;2022-08-04T10:38:28;28.40;97.30
3262;DHT22;1643;47.746;9.000;2022-08-04T10:41:10;28.50;97.30
3262;DHT22;1643;47.746;9.000;2022-08-04T10:46:48;28.70;96.80
3262;DHT22;1643;47.746;9.000;2022-08-04T10:49:22;28.70;96.30
3262;DHT22;1643;47.746;9.000;2022-08-04T10:52:03;28.80;96.10
3262;DHT22;1643;47.746;9.000;2022-08-04T10:54:38;28.90;95.90
3262;DHT22;1643;47.746;9.000;2022-08-04T10:57:36;29.00;95.40
3262;DHT22;1643;47.746;9.000;2022-08-04T11:00:12;29.10;95.20
3262;DHT22;1643;47.746;9.000;2022-08-04T11:05:57;29.30;94.20
3262;DHT22;1643;47.746;9.000;2022-08-04T11:08:03;29.30;93.90
3262;DHT22;1643;47.746;9.000;2022-08-04T11:10:34;29.40;93.40
3262;DHT22;1643;47.746;9.000;2022-08-04T11:13:05;29.50;92.90
3262;DHT22;1643;47.746;9.000;2022-08-04T11:15:55;29.50;92.80
3262;DHT22;1643;47.746;9.000;2022-08-04T11:18:28;29.70;93.00
3262;DHT22;1643;47.746;9.000;2022-08-04T11:21:12;29.90;92.50
3262;DHT22;1643;47.746;9.000;2022-08-04T11:23:57;29.90;92.30
3262;DHT22;1643;47.746;9.000;2022-08-04T11:26:52;29.90;91.50
3262;DHT22;1643;47.746;9.000;2022-08-04T11:29:38;29.90;91.20
3262;DHT22;1643;47.746;9.000;2022-08-04T11:32:09;30.10;91.10
3262;DHT22;1643;47.746;9.000;2022-08-04T11:34:42;30.30;90.80
3262;DHT22;1643;47.746;9.000;2022-08-04T11:37:10;30.40;90.00
3262;DHT22;1643;47.746;9.000;2022-08-04T11:45:02;30.60;87.40
3262;DHT22;1643;47.746;9.000;2022-08-04T11:50:52;30.80;87.40
3262;DHT22;1643;47.746;9.000;2022-08-04T11:53:22;30.80;86.40
3262;DHT22;1643;47.746;9.000;2022-08-04T11:55:53;30.90;86.40
3262;DHT22;1643;47.746;9.000;2022-08-04T11:58:22;31.00;86.10
3262;DHT22;1643;47.746;9.000;2022-08-04T12:04:04;31.20;84.50
3262;DHT22;1643;47.746;9.000;2022-08-04T12:06:41;31.30;83.70
3262;DHT22;1643;47.746;9.000;2022-08-04T12:09:35;31.30;82.10
3262;DHT22;1643;47.746;9.000;2022-08-04T12:12:26;31.30;82.40
3262;DHT22;1643;47.746;9.000;2022-08-04T12:17:46;31.60;81.60
3262;DHT22;1643;47.746;9.000;2022-08-04T12:20:18;31.60;79.60
3262;DHT22;1643;47.746;9.000;2022-08-04T12:22:49;31.60;78.30
3262;DHT22;1643;47.746;9.000;2022-08-04T12:25:19;31.60;77.30
3262;DHT22;1643;47.746;9.000;2022-08-04T12:27:51;31.70;77.00
3262;DHT22;1643;47.746;9.000;2022-08-04T12:30:18;31.80;76.60
3262;DHT22;1643;47.746;9.000;2022-08-04T12:32:58;31.90;76.00
3262;DHT22;1643;47.746;9.000;2022-08-04T12:35:57;31.90;75.70
3262;DHT22;1643;47.746;9.000;2022-08-04T12:38:28;32.00;75.60
3262;DHT22;1643;47.746;9.000;2022-08-04T12:40:58;32.10;75.10
3262;DHT22;1643;47.746;9.000;2022-08-04T12:43:43;32.10;74.40
3262;DHT22;1643;47.746;9.000;2022-08-04T12:46:26;32.20;74.00
3262;DHT22;1643;47.746;9.000;2022-08-04T12:48:59;32.20;72.30
3262;DHT22;1643;47.746;9.000;2022-08-04T12:51:26;32.20;72.50
3262;DHT22;1643;47.746;9.000;2022-08-04T12:53:52;32.30;73.20
3262;DHT22;1643;47.746;9.000;2022-08-04T12:56:25;32.40;73.20
3262;DHT22;1643;47.746;9.000;2022-08-04T12:58:52;32.30;72.60
3262;DHT22;1643;47.746;9.000;2022-08-04T13:01:20;32.40;71.40
3262;DHT22;1643;47.746;9.000;2022-08-04T13:04:03;32.50;70.60
3262;DHT22;1643;47.746;9.000;2022-08-04T13:06:37;32.60;70.70
3262;DHT22;1643;47.746;9.000;2022-08-04T13:09:08;32.70;69.10
3262;DHT22;1643;47.746;9.000;2022-08-04T13:11:46;32.70;68.40
3262;DHT22;1643;47.746;9.000;2022-08-04T13:14:13;32.80;67.20
3262;DHT22;1643;47.746;9.000;2022-08-04T13:16:39;32.90;67.50
3262;DHT22;1643;47.746;9.000;2022-08-04T13:19:07;32.90;66.90
3262;DHT22;1643;47.746;9.000;2022-08-04T13:21:33;32.90;67.20
3262;DHT22;1643;47.746;9.000;2022-08-04T13:24:05;33.00;66.10
3262;DHT22;1643;47.746;9.000;2022-08-04T13:26:33;33.00;66.20
3262;DHT22;1643;47.746;9.000;2022-08-04T13:29:03;33.10;65.70
3262;DHT22;1643;47.746;9.000;2022-08-04T13:31:30;33.10;65.40
3262;DHT22;1643;47.746;9.000;2022-08-04T13:34:06;33.20;65.10
3262;DHT22;1643;47.746;9.000;2022-08-04T13:36:34;33.30;64.90
3262;DHT22;1643;47.746;9.000;2022-08-04T13:39:12;33.30;63.00
3262;DHT22;1643;47.746;9.000;2022-08-04T13:41:38;33.40;62.60
3262;DHT22;1643;47.746;9.000;2022-08-04T13:44:08;33.40;61.70
3262;DHT22;1643;47.746;9.000;2022-08-04T13:46:45;33.40;61.80
3262;DHT22;1643;47.746;9.000;2022-08-04T13:49:15;33.60;61.20
3262;DHT22;1643;47.746;9.000;2022-08-04T13:51:47;33.60;61.10
3262;DHT22;1643;47.746;9.000;2022-08-04T13:54:14;33.80;58.90
3262;DHT22;1643;47.746;9.000;2022-08-04T13:56:44;33.80;58.70
3262;DHT22;1643;47.746;9.000;2022-08-04T13:59:15;33.70;58.10
3262;DHT22;1643;47.746;9.000;2022-08-04T14:01:44;33.80;57.00
3262;DHT22;1643;47.746;9.000;2022-08-04T14:04:20;33.80;57.40
3262;DHT22;1643;47.746;9.000;2022-08-04T14:06:54;33.90;57.20
3262;DHT22;1643;47.746;9.000;2022-08-04T14:09:23;33.90;57.20
3262;DHT22;1643;47.746;9.000;2022-08-04T14:11:53;33.90;57.50
3262;DHT22;1643;47.746;9.000;2022-08-04T14:14:29;34.00;56.70
3262;DHT22;1643;47.746;9.000;2022-08-04T14:19:25;34.10;56.50
3262;DHT22;1643;47.746;9.000;2022-08-04T14:21:51;34.10;55.80
3262;DHT22;1643;47.746;9.000;2022-08-04T14:24:25;34.20;55.00
3262;DHT22;1643;47.746;9.000;2022-08-04T14:26:51;34.20;54.50
3262;DHT22;1643;47.746;9.000;2022-08-04T14:29:17;34.30;54.50
3262;DHT22;1643;47.746;9.000;2022-08-04T14:31:47;34.30;54.60
3262;DHT22;1643;47.746;9.000;2022-08-04T14:34:27;34.30;55.10
3262;DHT22;1643;47.746;9.000;2022-08-04T14:36:54;34.40;55.30
3262;DHT22;1643;47.746;9.000;2022-08-04T14:39:40;34.40;54.70
3262;DHT22;1643;47.746;9.000;2022-08-04T14:42:07;34.40;54.50
3262;DHT22;1643;47.746;9.000;2022-08-04T14:44:53;34.40;54.50
3262;DHT22;1643;47.746;9.000;2022-08-04T14:50:06;34.50;55.40
3262;DHT22;1643;47.746;9.000;2022-08-04T14:52:32;34.50;54.70
3262;DHT22;1643;47.746;9.000;2022-08-04T14:55:17;34.60;53.40
3262;DHT22;1643;47.746;9.000;2022-08-04T14:57:43;34.60;53.30
3262;DHT22;1643;47.746;9.000;2022-08-04T15:00:09;34.60;52.80
3262;DHT22;1643;47.746;9.000;2022-08-04T15:02:37;34.60;52.80
3262;DHT22;1643;47.746;9.000;2022-08-04T15:05:05;34.60;53.80
3262;DHT22;1643;47.746;9.000;2022-08-04T15:07:32;34.60;54.40
3262;DHT22;1643;47.746;9.000;2022-08-04T15:09:57;34.60;54.80
3262;DHT22;1643;47.746;9.000;2022-08-04T15:12:23;34.60;55.20
3262;DHT22;1643;47.746;9.000;2022-08-04T15:14:49;34.60;54.70
3262;DHT22;1643;47.746;9.000;2022-08-04T15:17:15;34.60;55.20
3262;DHT22;1643;47.746;9.000;2022-08-04T15:19:42;34.60;55.70
3262;DHT22;1643;47.746;9.000;2022-08-04T15:22:08;34.60;55.60
3262;DHT22;1643;47.746;9.000;2022-08-04T15:24:33;34.60;55.50
3262;DHT22;1643;47.746;9.000;2022-08-04T15:27:00;34.60;55.50
3262;DHT22;1643;47.746;9.000;2022-08-04T15:29:42;34.60;55.40
3262;DHT22;1643;47.746;9.000;2022-08-04T15:32:14;34.60;55.20
3262;DHT22;1643;47.746;9.000;2022-08-04T15:34:51;34.60;55.10
3262;DHT22;1643;47.746;9.000;2022-08-04T15:37:26;34.60;54.90
3262;DHT22;1643;47.746;9.000;2022-08-04T15:39:59;34.60;54.60
3262;DHT22;1643;47.746;9.000;2022-08-04T15:42:34;34.60;54.40
3262;DHT22;1643;47.746;9.000;2022-08-04T15:45:19;34.60;54.20
3262;DHT22;1643;47.746;9.000;2022-08-04T15:50:30;34.60;54.70
3262;DHT22;1643;47.746;9.000;2022-08-04T15:52:59;34.70;54.90
3262;DHT22;1643;47.746;9.000;2022-08-04T15:55:33;34.60;54.60
3262;DHT22;1643;47.746;9.000;2022-08-04T16:08:29;34.60;54.80
3262;DHT22;1643;47.746;9.000;2022-08-04T16:11:06;34.60;54.90
3262;DHT22;1643;47.746;9.000;2022-08-04T16:13:31;34.50;54.50
3262;DHT22;1643;47.746;9.000;2022-08-04T16:15:57;34.50;54.30
3262;DHT22;1643;47.746;9.000;2022-08-04T16:20:57;34.50;54.40
3262;DHT22;1643;47.746;9.000;2022-08-04T16:25:51;34.50;53.80
3262;DHT22;1643;47.746;9.000;2022-08-04T16:28:37;34.40;53.70
3262;DHT22;1643;47.746;9.000;2022-08-04T16:31:04;34.40;53.60
3262;DHT22;1643;47.746;9.000;2022-08-04T16:33:31;34.40;53.60
3262;DHT22;1643;47.746;9.000;2022-08-04T16:35:58;34.30;54.50
3262;DHT22;1643;47.746;9.000;2022-08-04T16:38:24;34.30;54.50
3262;DHT22;1643;47.746;9.000;2022-08-04T16:40:58;34.20;54.40
3262;DHT22;1643;47.746;9.000;2022-08-04T16:43:29;34.10;54.90
3262;DHT22;1643;47.746;9.000;2022-08-04T16:45:59;34.00;55.20
3262;DHT22;1643;47.746;9.000;2022-08-04T16:48:33;33.90;55.30
3262;DHT22;1643;47.746;9.000;2022-08-04T16:51:05;33.80;55.40
3262;DHT22;1643;47.746;9.000;2022-08-04T16:53:37;33.80;55.50
3262;DHT22;1643;47.746;9.000;2022-08-04T16:56:03;33.70;55.10
3262;DHT22;1643;47.746;9.000;2022-08-04T16:58:34;33.70;55.50
3262;DHT22;1643;47.746;9.000;2022-08-04T17:01:07;33.70;55.20
3262;DHT22;1643;47.746;9.000;2022-08-04T17:03:38;33.50;55.40
3262;DHT22;1643;47.746;9.000;2022-08-04T17:06:10;33.50;55.30
3262;DHT22;1643;47.746;9.000;2022-08-04T17:08:37;33.40;55.90
3262;DHT22;1643;47.746;9.000;2022-08-04T17:11:04;33.30;55.80
3262;DHT22;1643;47.746;9.000;2022-08-04T17:13:33;33.30;56.20
3262;DHT22;1643;47.746;9.000;2022-08-04T17:16:02;33.20;57.10
3262;DHT22;1643;47.746;9.000;2022-08-04T17:18:30;33.20;57.90
3262;DHT22;1643;47.746;9.000;2022-08-04T17:20:58;33.10;58.00
3262;DHT22;1643;47.746;9.000;2022-08-04T17:25:57;33.00;58.00
3262;DHT22;1643;47.746;9.000;2022-08-04T17:28:23;32.90;58.20
3262;DHT22;1643;47.746;9.000;2022-08-04T17:30:50;32.90;58.40
3262;DHT22;1643;47.746;9.000;2022-08-04T17:33:16;32.80;58.50
3262;DHT22;1643;47.746;9.000;2022-08-04T17:35:43;32.80;58.20
3262;DHT22;1643;47.746;9.000;2022-08-04T17:38:09;32.80;58.20
3262;DHT22;1643;47.746;9.000;2022-08-04T17:40:53;32.80;58.30
3262;DHT22;1643;47.746;9.000;2022-08-04T17:43:33;32.70;58.40
3262;DHT22;1643;47.746;9.000;2022-08-04T17:48:54;32.60;58.70
3262;DHT22;1643;47.746;9.000;2022-08-04T17:51:21;32.60;58.80
3262;DHT22;1643;47.746;9.000;2022-08-04T17:53:55;32.50;59.60
3262;DHT22;1643;47.746;9.000;2022-08-04T17:59:08;32.40;60.30
3262;DHT22;1643;47.746;9.000;2022-08-04T18:01:41;32.30;60.10
3262;DHT22;1643;47.746;9.000;2022-08-04T18:07:18;32.30;59.80
3262;DHT22;1643;47.746;9.000;2022-08-04T18:12:27;32.20;60.20
3262;DHT22;1643;47.746;9.000;2022-08-04T18:14:58;32.10;60.40
3262;DHT22;1643;47.746;9.000;2022-08-04T18:17:42;32.00;60.70
3262;DHT22;1643;47.746;9.000;2022-08-04T18:20:18;32.00;60.90
3262;DHT22;1643;47.746;9.000;2022-08-04T18:22:45;32.00;61.40
3262;DHT22;1643;47.746;9.000;2022-08-04T18:25:14;31.90;61.70
3262;DHT22;1643;47.746;9.000;2022-08-04T18:27:53;31.90;62.10
3262;DHT22;1643;47.746;9.000;2022-08-04T18:30:23;31.90;62.50
3262;DHT22;1643;47.746;9.000;2022-08-04T18:32:49;31.80;62.70
3262;DHT22;1643;47.746;9.000;2022-08-04T18:35:16;31.80;63.00
3262;DHT22;1643;47.746;9.000;2022-08-04T18:37:42;31.70;63.10
3262;DHT22;1643;47.746;9.000;2022-08-04T18:40:08;31.60;63.30
3262;DHT22;1643;47.746;9.000;2022-08-04T18:42:35;31.60;63.80
3262;DHT22;1643;47.746;9.000;2022-08-04T18:45:02;31.50;64.10
3262;DHT22;1643;47.746;9.000;2022-08-04T18:47:28;31.40;64.30
3262;DHT22;1643;47.746;9.000;2022-08-04T18:49:54;31.40;64.50
3262;DHT22;1643;47.746;9.000;2022-08-04T18:52:20;31.30;64.80
3262;DHT22;1643;47.746;9.000;2022-08-04T18:54:47;31.30;65.00
3262;DHT22;1643;47.746;9.000;2022-08-04T18:57:20;31.30;65.40
3262;DHT22;1643;47.746;9.000;2022-08-04T18:59:46;31.20;65.70
3262;DHT22;1643;47.746;9.000;2022-08-04T19:02:12;31.20;66.20
3262;DHT22;1643;47.746;9.000;2022-08-04T19:04:39;31.10;66.70
3262;DHT22;1643;47.746;9.000;2022-08-04T19:07:05;31.10;67.60
3262;DHT22;1643;47.746;9.000;2022-08-04T19:09:31;31.00;68.70
3262;DHT22;1643;47.746;9.000;2022-08-04T19:11:57;30.90;69.80
3262;DHT22;1643;47.746;9.000;2022-08-04T19:14:23;30.70;70.60
3262;DHT22;1643;47.746;9.000;2022-08-04T19:16:49;30.60;71.60
3262;DHT22;1643;47.746;9.000;2022-08-04T19:19:14;30.60;72.60
3262;DHT22;1643;47.746;9.000;2022-08-04T19:21:42;30.60;73.70
3262;DHT22;1643;47.746;9.000;2022-08-04T19:24:08;30.50;74.20
3262;DHT22;1643;47.746;9.000;2022-08-04T19:26:35;30.40;74.50
3262;DHT22;1643;47.746;9.000;2022-08-04T19:29:01;30.30;74.40
3262;DHT22;1643;47.746;9.000;2022-08-04T19:31:26;30.20;74.60
3262;DHT22;1643;47.746;9.000;2022-08-04T19:33:52;30.10;74.70
3262;DHT22;1643;47.746;9.000;2022-08-04T19:36:19;30.00;74.90
3262;DHT22;1643;47.746;9.000;2022-08-04T19:38:47;29.90;75.30
3262;DHT22;1643;47.746;9.000;2022-08-04T19:41:13;29.90;76.30
3262;DHT22;1643;47.746;9.000;2022-08-04T19:43:39;29.80;77.60
3262;DHT22;1643;47.746;9.000;2022-08-04T19:46:06;29.70;79.30
3262;DHT22;1643;47.746;9.000;2022-08-04T19:48:32;29.60;80.80
3262;DHT22;1643;47.746;9.000;2022-08-04T19:50:57;29.50;81.80
3262;DHT22;1643;47.746;9.000;2022-08-04T19:53:23;29.30;82.70
3262;DHT22;1643;47.746;9.000;2022-08-04T19:55:49;29.30;83.80
3262;DHT22;1643;47.746;9.000;2022-08-04T19:58:14;29.20;84.60
3262;DHT22;1643;47.746;9.000;2022-08-04T20:00:40;29.10;84.80
3262;DHT22;1643;47.746;9.000;2022-08-04T20:03:07;29.10;84.60
3262;DHT22;1643;47.746;9.000;2022-08-04T20:05:34;29.10;84.00
3262;DHT22;1643;47.746;9.000;2022-08-04T20:07:59;29.00;83.90
3262;DHT22;1643;47.746;9.000;2022-08-04T20:10:25;29.00;84.30
3262;DHT22;1643;47.746;9.000;2022-08-04T20:12:51;28.90;85.00
3262;DHT22;1643;47.746;9.000;2022-08-04T20:15:16;28.80;85.80
3262;DHT22;1643;47.746;9.000;2022-08-04T20:17:43;28.80;86.50
3262;DHT22;1643;47.746;9.000;2022-08-04T20:20:09;28.70;86.60
3262;DHT22;1643;47.746;9.000;2022-08-04T20:22:35;28.70;86.50
3262;DHT22;1643;47.746;9.000;2022-08-04T20:25:01;28.60;86.20
3262;DHT22;1643;47.746;9.000;2022-08-04T20:27:27;28.60;85.80
3262;DHT22;1643;47.746;9.000;2022-08-04T20:29:53;28.60;85.50
3262;DHT22;1643;47.746;9.000;2022-08-04T20:32:21;28.50;84.90
3262;DHT22;1643;47.746;9.000;2022-08-04T20:34:51;28.50;85.00
3262;DHT22;1643;47.746;9.000;2022-08-04T20:37:17;28.50;85.00
3262;DHT22;1643;47.746;9.000;2022-08-04T20:39:43;28.40;84.80
3262;DHT22;1643;47.746;9.000;2022-08-04T20:42:08;28.40;84.80
3262;DHT22;1643;47.746;9.000;2022-08-04T20:44:34;28.30;84.60
3262;DHT22;1643;47.746;9.000;2022-08-04T20:47:00;28.30;84.80
3262;DHT22;1643;47.746;9.000;2022-08-04T20:49:25;28.20;84.90
3262;DHT22;1643;47.746;9.000;2022-08-04T20:51:51;28.20;85.30
3262;DHT22;1643;47.746;9.000;2022-08-04T20:54:17;28.10;85.60
3262;DHT22;1643;47.746;9.000;2022-08-04T20:56:43;28.10;85.80
3262;DHT22;1643;47.746;9.000;2022-08-04T20:59:09;28.10;86.00
3262;DHT22;1643;47.746;9.000;2022-08-04T21:01:34;28.00;86.10